createdAt,value
2022-08-29T00:02:13.161Z,83.44
2022-08-29T00:04:40.880Z,84.27
2022-08-29T00:07:10.339Z,83.86
2022-08-29T00:09:37.951Z,83.91
2022-08-29T00:12:06.494Z,83.52
2022-08-29T00:14:34.438Z,83.24
2022-08-29T00:17:02.176Z,82.99
2022-08-29T00:19:30.024Z,82.72
2022-08-29T00:21:57.675Z,82.22
2022-08-29T00:24:27.341Z,81.60
2022-08-29T00:26:54.969Z,82.40
2022-08-29T00:29:22.589Z,82.44
2022-08-29T00:31:50.332Z,82.60
2022-08-29T00:34:17.963Z,82.62
2022-08-29T00:36:48.951Z,82.01
2022-08-29T00:39:17.000Z,82.04
2022-08-29T00:41:47.935Z,82.06
2022-08-29T00:44:16.719Z,82.32
2022-08-29T00:46:48.556Z,81.98
2022-08-29T00:49:30.940Z,82.04
2022-08-29T00:52:01.177Z,82.25
2022-08-29T00:54:29.025Z,81.47
2022-08-29T00:56:58.958Z,81.81
2022-08-29T00:59:31.554Z,81.76
2022-08-29T01:01:59.851Z,81.55
2022-08-29T01:04:27.693Z,81.63
2022-08-29T01:06:55.653Z,81.99
2022-08-29T01:09:24.237Z,80.98
2022-08-29T01:12:15.416Z,80.32
2022-08-29T01:14:47.848Z,81.57
2022-08-29T01:17:19.417Z,83.12
2022-08-29T01:19:53.931Z,84.21
2022-08-29T01:22:34.834Z,83.32
2022-08-29T01:25:07.580Z,83.81
2022-08-29T01:27:39.553Z,83.15
2022-08-29T01:30:09.027Z,83.90
2022-08-29T01:32:36.676Z,83.12
2022-08-29T01:35:05.515Z,82.84
2022-08-29T01:37:35.282Z,83.06
2022-08-29T01:40:05.367Z,83.11
2022-08-29T01:42:36.611Z,82.27
2022-08-29T01:45:09.963Z,82.76
2022-08-29T01:47:39.138Z,83.47
2022-08-29T01:50:10.095Z,83.03
2022-08-29T01:52:37.781Z,82.79
2022-08-29T01:55:07.598Z,82.53
2022-08-29T01:57:37.316Z,84.04
2022-08-29T02:00:07.723Z,83.73
2022-08-29T02:02:35.511Z,81.29
2022-08-29T02:05:04.942Z,82.75
2022-08-29T02:07:32.567Z,82.23
2022-08-29T02:10:00.268Z,82.36
2022-08-29T02:12:31.587Z,83.36
2022-08-29T02:15:02.006Z,82.95
2022-08-29T02:17:29.923Z,82.52
2022-08-29T02:19:58.049Z,81.81
2022-08-29T02:22:25.990Z,82.38
2022-08-29T02:24:53.557Z,82.02
2022-08-29T02:27:21.175Z,81.89
2022-08-29T02:29:50.593Z,81.78
2022-08-29T02:32:18.240Z,81.43
2022-08-29T02:34:47.831Z,81.39
2022-08-29T02:37:16.310Z,81.27
2022-08-29T02:39:43.950Z,81.01
2022-08-29T02:42:11.619Z,80.65
2022-08-29T02:44:39.267Z,80.16
2022-08-29T02:47:09.260Z,80.17
2022-08-29T02:49:37.029Z,80.12
2022-08-29T02:52:06.515Z,79.88
2022-08-29T02:54:34.731Z,79.51
2022-08-29T02:57:02.322Z,79.82
2022-08-29T02:59:29.972Z,79.71
2022-08-29T03:01:57.745Z,79.75
2022-08-29T03:04:26.744Z,79.50
2022-08-29T03:06:54.525Z,79.47
2022-08-29T03:09:22.121Z,80.06
2022-08-29T03:11:52.496Z,79.16
2022-08-29T03:14:20.097Z,79.15
2022-08-29T03:16:47.819Z,80.38
2022-08-29T03:19:15.422Z,79.92
2022-08-29T03:21:45.402Z,79.71
2022-08-29T03:24:13.157Z,79.27
2022-08-29T03:26:40.766Z,79.95
2022-08-29T03:29:08.357Z,79.97
2022-08-29T03:31:36.472Z,79.91
2022-08-29T03:34:04.450Z,80.01
2022-08-29T03:36:32.340Z,79.43
2022-08-29T03:39:01.466Z,79.10
2022-08-29T03:41:30.394Z,79.05
2022-08-29T03:43:58.872Z,79.09
2022-08-29T03:46:29.231Z,80.56
2022-08-29T03:48:59.123Z,80.14
2022-08-29T03:51:29.389Z,79.60
2022-08-29T03:53:57.285Z,79.58
2022-08-29T03:56:26.956Z,79.34
2022-08-29T03:58:55.110Z,79.45
2022-08-29T04:01:24.761Z,79.73
2022-08-29T04:03:52.668Z,79.64
2022-08-29T04:06:20.856Z,79.74
2022-08-29T04:08:48.815Z,79.94
2022-08-29T04:11:18.468Z,79.38
2022-08-29T04:13:48.801Z,79.59
2022-08-29T04:16:19.656Z,80.28
2022-08-29T04:18:47.431Z,80.31
2022-08-29T04:21:15.552Z,80.54
2022-08-29T04:23:43.643Z,80.64
2022-08-29T04:26:35.281Z,80.15
2022-08-29T04:29:03.691Z,80.74
2022-08-29T04:31:31.484Z,80.00
2022-08-29T04:33:59.199Z,79.35
2022-08-29T04:36:28.039Z,81.04
2022-08-29T04:38:56.008Z,81.27
2022-08-29T04:41:23.596Z,80.88
2022-08-29T04:43:51.224Z,80.48
2022-08-29T04:46:24.011Z,80.08
2022-08-29T04:48:52.249Z,79.46
2022-08-29T04:51:19.936Z,79.10
2022-08-29T04:53:48.104Z,79.60
2022-08-29T04:56:16.368Z,79.81
2022-08-29T04:58:45.280Z,78.66
2022-08-29T05:01:14.928Z,78.77
2022-08-29T05:03:45.324Z,78.47
2022-08-29T05:06:15.518Z,78.03
2022-08-29T05:08:45.795Z,78.25
2022-08-29T05:11:15.658Z,78.54
2022-08-29T05:13:52.029Z,77.52
2022-08-29T05:16:19.818Z,77.18
2022-08-29T05:18:48.910Z,77.37
2022-08-29T05:21:25.927Z,77.12
2022-08-29T05:23:54.218Z,76.55
2022-08-29T05:26:22.065Z,76.22
2022-08-29T05:28:49.714Z,76.09
2022-08-29T05:31:17.421Z,76.96
2022-08-29T05:33:45.180Z,76.79
2022-08-29T05:36:14.189Z,77.34
2022-08-29T05:38:42.135Z,77.19
2022-08-29T05:41:09.724Z,77.67
2022-08-29T05:43:37.374Z,77.40
2022-08-29T05:46:07.045Z,77.48
2022-08-29T05:48:35.905Z,76.93
2022-08-29T05:51:04.132Z,75.08
2022-08-29T05:53:34.575Z,75.98
2022-08-29T05:56:02.281Z,76.09
2022-08-29T05:58:29.917Z,77.24
2022-08-29T06:00:57.606Z,78.09
2022-08-29T06:03:25.592Z,78.32
2022-08-29T06:05:53.957Z,80.41
2022-08-29T06:08:22.052Z,80.70
2022-08-29T06:10:51.020Z,80.12
2022-08-29T06:13:19.444Z,80.03
2022-08-29T06:15:47.062Z,79.66
2022-08-29T06:18:14.826Z,78.97
2022-08-29T06:20:42.519Z,78.10
2022-08-29T06:23:10.191Z,77.65
2022-08-29T06:25:40.109Z,77.44
2022-08-29T06:28:09.481Z,77.74
2022-08-29T06:30:37.171Z,77.06
2022-08-29T06:33:04.980Z,77.03
2022-08-29T06:35:32.583Z,77.29
2022-08-29T06:38:00.299Z,76.94
2022-08-29T06:40:28.019Z,76.47
2022-08-29T06:42:55.693Z,77.16
2022-08-29T06:45:24.752Z,76.43
2022-08-29T06:47:52.407Z,76.37
2022-08-29T06:50:20.169Z,77.28
2022-08-29T06:52:49.272Z,77.33
2022-08-29T06:55:17.048Z,76.83
2022-08-29T06:57:51.575Z,76.79
2022-08-29T07:00:22.086Z,76.69
2022-08-29T07:02:53.080Z,77.20
2022-08-29T07:05:21.627Z,73.80
2022-08-29T07:07:49.665Z,70.43
2022-08-29T07:10:22.246Z,70.26
2022-08-29T07:12:51.028Z,68.96
2022-08-29T07:15:19.866Z,69.90
2022-08-29T07:17:47.515Z,70.27
2022-08-29T07:20:17.808Z,69.83
2022-08-29T07:22:51.003Z,69.15
2022-08-29T07:25:20.072Z,68.32
2022-08-29T07:27:48.329Z,66.93
2022-08-29T07:30:21.121Z,65.65
2022-08-29T07:32:48.729Z,66.51
2022-08-29T07:35:29.598Z,65.21
2022-08-29T07:37:59.378Z,65.19
2022-08-29T07:40:27.072Z,64.29
2022-08-29T07:42:54.751Z,67.02
2022-08-29T07:45:22.681Z,66.54
2022-08-29T07:47:50.252Z,64.25
2022-08-29T07:50:19.226Z,63.15
2022-08-29T07:52:47.684Z,64.62
2022-08-29T07:55:15.428Z,63.94
2022-08-29T07:57:43.076Z,62.15
2022-08-29T08:00:12.037Z,62.21
2022-08-29T08:02:42.520Z,62.01
2022-08-29T08:05:10.484Z,62.46
2022-08-29T08:07:40.178Z,60.77
2022-08-29T08:10:09.532Z,61.45
2022-08-29T08:12:37.178Z,60.58
2022-08-29T08:15:05.481Z,59.97
2022-08-29T08:17:33.180Z,59.65
2022-08-29T08:20:00.796Z,59.65
2022-08-29T08:22:28.385Z,59.54
2022-08-29T08:24:57.310Z,58.95
2022-08-29T08:27:24.954Z,60.03
2022-08-29T08:29:52.559Z,59.97
2022-08-29T08:32:23.152Z,59.85
2022-08-29T08:34:59.964Z,58.12
2022-08-29T08:37:27.578Z,59.26
2022-08-29T08:39:58.290Z,58.41
2022-08-29T08:42:33.648Z,58.67
2022-08-29T08:45:08.626Z,57.28
2022-08-29T08:47:40.236Z,58.68
2022-08-29T08:50:16.066Z,56.97
2022-08-29T08:52:47.875Z,55.75
2022-08-29T08:55:24.917Z,56.38
2022-08-29T08:58:00.665Z,56.82
2022-08-29T09:00:36.142Z,56.88
2022-08-29T09:03:13.981Z,56.98
2022-08-29T09:06:00.808Z,58.16
2022-08-29T09:08:42.759Z,56.47
2022-08-29T09:11:19.746Z,55.92
2022-08-29T09:13:56.899Z,55.80
2022-08-29T09:16:27.958Z,55.59
2022-08-29T09:18:59.594Z,54.24
2022-08-29T09:21:43.893Z,52.96
2022-08-29T09:24:18.301Z,52.91
2022-08-29T09:26:47.337Z,53.88
2022-08-29T09:29:20.807Z,52.05
2022-08-29T09:32:07.212Z,51.88
2022-08-29T09:37:29.920Z,51.67
2022-08-29T09:40:01.366Z,51.80
2022-08-29T09:42:36.334Z,50.80
2022-08-29T09:45:16.169Z,50.14
2022-08-29T09:47:44.145Z,51.28
2022-08-29T09:50:21.489Z,51.28
2022-08-29T09:52:53.601Z,50.62
2022-08-29T09:55:25.475Z,50.85
2022-08-29T09:57:57.956Z,50.25
2022-08-29T10:00:29.713Z,50.85
2022-08-29T10:03:00.103Z,50.87
2022-08-29T10:05:35.067Z,50.37
2022-08-29T10:08:04.464Z,50.66
2022-08-29T10:10:36.000Z,50.55
2022-08-29T10:13:11.666Z,49.14
2022-08-29T10:15:51.614Z,50.26
2022-08-29T10:18:29.122Z,49.06
2022-08-29T10:21:07.900Z,49.69
2022-08-29T10:23:47.565Z,50.06
2022-08-29T10:26:28.599Z,50.15
2022-08-29T10:29:09.212Z,49.74
2022-08-29T10:31:41.392Z,48.71
2022-08-29T10:34:22.258Z,47.91
2022-08-29T10:36:56.230Z,47.99
2022-08-29T10:39:34.613Z,47.26
2022-08-29T10:42:09.618Z,47.79
2022-08-29T10:44:51.122Z,47.40
2022-08-29T10:47:32.119Z,47.93
2022-08-29T10:50:21.834Z,48.12
2022-08-29T10:53:03.259Z,47.86
2022-08-29T10:55:42.168Z,46.51
2022-08-29T10:58:18.149Z,46.00
2022-08-29T11:00:52.559Z,45.16
2022-08-29T11:03:29.954Z,46.14
2022-08-29T11:06:02.297Z,46.25
2022-08-29T11:08:34.677Z,44.89
2022-08-29T11:11:02.305Z,43.46
2022-08-29T11:13:36.084Z,43.76
2022-08-29T11:16:13.924Z,44.61
2022-08-29T11:18:46.309Z,42.67
2022-08-29T11:21:25.195Z,42.05
2022-08-29T11:23:55.454Z,42.06
2022-08-29T11:26:39.971Z,40.96
2022-08-29T11:29:18.065Z,40.66
2022-08-29T11:31:54.475Z,39.13
2022-08-29T11:34:32.485Z,39.81
2022-08-29T11:37:28.869Z,39.08
2022-08-29T11:40:08.345Z,40.16
2022-08-29T11:42:55.197Z,38.46
2022-08-29T11:45:35.592Z,37.10
2022-08-29T11:48:21.256Z,37.59
2022-08-29T11:50:50.101Z,37.43
2022-08-29T11:53:33.670Z,36.29
2022-08-29T11:56:27.966Z,34.56
2022-08-29T11:58:57.087Z,34.17
2022-08-29T12:01:56.205Z,33.75
2022-08-29T12:04:53.747Z,33.68
2022-08-29T12:07:24.246Z,33.22
2022-08-29T12:09:58.812Z,32.92
2022-08-29T12:12:45.191Z,32.64
2022-08-29T12:15:54.596Z,32.03
2022-08-29T12:18:36.605Z,32.31
2022-08-29T12:21:34.117Z,31.58
2022-08-29T12:24:02.217Z,32.59
2022-08-29T12:26:43.087Z,31.13
2022-08-29T12:29:19.492Z,29.37
2022-08-29T12:32:28.530Z,29.24
2022-08-29T12:35:22.211Z,29.49
2022-08-29T12:38:03.297Z,28.57
2022-08-29T12:40:46.768Z,28.46
2022-08-29T12:43:26.905Z,26.55
2022-08-29T12:45:56.241Z,26.79
2022-08-29T12:48:26.395Z,26.50
2022-08-29T12:50:54.699Z,26.86
2022-08-29T12:53:26.153Z,26.04
2022-08-29T12:55:56.198Z,26.80
2022-08-29T12:58:41.436Z,24.76
2022-08-29T13:01:20.848Z,24.41
2022-08-29T13:04:00.849Z,24.03
2022-08-29T13:06:29.395Z,23.30
2022-08-29T13:08:59.099Z,22.05
2022-08-29T13:11:29.034Z,20.80
2022-08-29T13:14:09.413Z,20.67
2022-08-29T13:16:37.797Z,21.89
2022-08-29T13:19:11.426Z,20.63
2022-08-29T13:21:39.743Z,19.87
2022-08-29T13:24:14.093Z,19.41
2022-08-29T13:27:01.084Z,18.93
2022-08-29T13:29:36.873Z,19.15
2022-08-29T13:32:12.751Z,18.86
2022-08-29T13:35:00.520Z,18.08
2022-08-29T13:37:31.304Z,19.46
2022-08-29T13:40:32.077Z,17.44
2022-08-29T13:43:01.565Z,17.44
2022-08-29T13:45:29.283Z,17.62
2022-08-29T13:48:12.196Z,16.44
2022-08-29T13:50:40.726Z,17.61
2022-08-29T13:53:08.459Z,18.22
2022-08-29T13:55:37.681Z,17.06
2022-08-29T13:58:05.428Z,16.71
2022-08-29T14:00:35.430Z,15.59
2022-08-29T14:03:06.473Z,15.78
2022-08-29T14:05:35.700Z,14.31
2022-08-29T14:08:04.635Z,14.80
2022-08-29T14:10:32.331Z,14.22
2022-08-29T14:13:01.331Z,14.42
2022-08-29T14:15:29.024Z,13.20
2022-08-29T14:17:56.847Z,13.76
2022-08-29T14:20:24.551Z,14.15
2022-08-29T14:22:52.140Z,13.51
2022-08-29T14:25:21.117Z,13.62
2022-08-29T14:27:49.047Z,13.62
2022-08-29T14:30:21.483Z,13.58
2022-08-29T14:32:49.191Z,13.71
2022-08-29T14:35:26.824Z,13.54
2022-08-29T14:38:00.390Z,13.21
2022-08-29T14:40:28.938Z,12.70
2022-08-29T14:42:57.022Z,14.12
2022-08-29T14:45:26.103Z,12.98
2022-08-29T14:47:53.709Z,14.16
2022-08-29T14:50:22.106Z,13.36
2022-08-29T14:52:50.240Z,14.26
2022-08-29T14:55:18.357Z,13.30
2022-08-29T14:57:46.112Z,12.86
2022-08-29T15:00:17.157Z,12.44
2022-08-29T15:02:46.198Z,13.10
2022-08-29T15:05:14.181Z,12.89
2022-08-29T15:07:41.912Z,13.20
2022-08-29T15:10:11.420Z,13.07
2022-08-29T15:12:39.587Z,13.10
2022-08-29T15:15:08.473Z,13.25
2022-08-29T15:17:36.177Z,13.19
2022-08-29T15:22:54.837Z,12.01
2022-08-29T15:25:24.117Z,12.60
2022-08-29T15:27:51.925Z,12.16
2022-08-29T15:30:21.468Z,12.14
2022-08-29T15:32:49.403Z,13.22
2022-08-29T15:35:18.984Z,13.15
2022-08-29T15:37:46.633Z,12.88
2022-08-29T15:40:14.987Z,12.98
2022-08-29T15:42:42.737Z,13.28
2022-08-29T15:45:11.863Z,13.44
2022-08-29T15:47:40.605Z,13.35
2022-08-29T15:50:14.994Z,13.01
2022-08-29T15:52:43.993Z,13.97
2022-08-29T15:55:12.595Z,14.43
2022-08-29T15:57:52.166Z,14.62
2022-08-29T16:00:29.856Z,14.33
2022-08-29T16:02:59.962Z,14.43
2022-08-29T16:05:27.615Z,13.96
2022-08-29T16:07:56.628Z,14.69
2022-08-29T16:10:24.355Z,14.72
2022-08-29T16:12:51.972Z,14.56
2022-08-29T16:15:19.712Z,14.08
2022-08-29T16:17:47.400Z,13.47
2022-08-29T16:20:15.014Z,13.22
2022-08-29T16:22:43.686Z,13.65
2022-08-29T16:25:13.956Z,14.27
2022-08-29T16:27:41.770Z,13.62
2022-08-29T16:30:10.952Z,14.21
2022-08-29T16:32:39.644Z,13.85
2022-08-29T16:35:08.350Z,13.79
2022-08-29T16:37:36.037Z,13.96
2022-08-29T16:40:05.371Z,13.59
2022-08-29T16:42:34.861Z,14.12
2022-08-29T16:45:02.659Z,14.33
2022-08-29T16:47:31.073Z,14.59
2022-08-29T16:49:59.212Z,14.77
2022-08-29T16:52:26.829Z,14.74
2022-08-29T16:54:54.498Z,14.98
2022-08-29T16:57:22.590Z,15.09
2022-08-29T16:59:51.560Z,15.73
2022-08-29T17:02:19.199Z,16.06
2022-08-29T17:04:48.803Z,16.83
2022-08-29T17:07:16.538Z,16.63
2022-08-29T17:09:43.108Z,17.56
2022-08-29T17:12:09.909Z,18.56
2022-08-29T17:14:36.515Z,18.45
2022-08-29T17:17:05.694Z,19.25
2022-08-29T17:19:34.032Z,19.72
2022-08-29T17:22:01.850Z,19.50
2022-08-29T17:24:29.447Z,20.02
2022-08-29T17:26:57.457Z,20.86
2022-08-29T17:29:25.132Z,20.79
2022-08-29T17:31:52.721Z,21.79
2022-08-29T17:34:21.730Z,21.80
2022-08-29T17:36:49.586Z,24.02
2022-08-29T17:39:17.219Z,23.18
2022-08-29T17:41:50.323Z,23.83
2022-08-29T17:44:18.532Z,23.57
2022-08-29T17:46:46.217Z,26.62
2022-08-29T17:49:13.816Z,26.47
2022-08-29T17:51:43.543Z,29.02
2022-08-29T17:54:22.377Z,31.35
2022-08-29T17:56:52.483Z,32.99
2022-08-29T17:59:21.355Z,33.74
2022-08-29T18:01:49.095Z,35.17
2022-08-29T18:04:16.869Z,36.24
2022-08-29T18:06:47.037Z,37.42
2022-08-29T18:09:14.936Z,38.88
2022-08-29T18:11:44.743Z,39.71
2022-08-29T18:14:12.933Z,40.10
2022-08-29T18:16:40.728Z,41.58
2022-08-29T18:19:08.764Z,42.27
2022-08-29T18:21:36.892Z,43.34
2022-08-29T18:24:06.490Z,43.49
2022-08-29T18:26:34.826Z,44.83
2022-08-29T18:29:02.489Z,45.37
2022-08-29T18:31:30.174Z,46.97
2022-08-29T18:34:00.475Z,47.37
2022-08-29T18:36:29.130Z,47.46
2022-08-29T18:38:56.830Z,48.44
2022-08-29T18:41:25.959Z,49.30
2022-08-29T18:43:53.605Z,50.07
2022-08-29T18:46:21.790Z,50.13
2022-08-29T18:48:49.439Z,51.14
2022-08-29T18:51:17.156Z,51.26
2022-08-29T18:53:44.796Z,51.65
2022-08-29T18:56:13.333Z,53.13
2022-08-29T18:58:44.193Z,53.54
2022-08-29T19:01:14.009Z,52.47
2022-08-29T19:03:41.940Z,52.49
2022-08-29T19:06:10.161Z,52.91
2022-08-29T19:08:39.365Z,51.44
2022-08-29T19:11:08.615Z,51.91
2022-08-29T19:13:36.347Z,52.89
2022-08-29T19:16:09.482Z,53.42
2022-08-29T19:18:37.842Z,53.98
2022-08-29T19:21:06.359Z,54.08
2022-08-29T19:23:37.007Z,54.30
2022-08-29T19:26:08.304Z,54.44
2022-08-29T19:28:36.412Z,55.16
2022-08-29T19:31:06.340Z,55.01
2022-08-29T19:33:35.102Z,55.62
2022-08-29T19:36:05.270Z,56.07
2022-08-29T19:38:33.012Z,56.81
2022-08-29T19:41:01.043Z,57.88
2022-08-29T19:43:31.898Z,57.11
2022-08-29T19:46:01.211Z,57.39
2022-08-29T19:48:30.275Z,57.75
2022-08-29T19:50:57.914Z,58.38
2022-08-29T19:53:26.213Z,58.87
2022-08-29T19:55:55.245Z,59.91
2022-08-29T19:58:31.453Z,60.03
2022-08-29T20:01:01.425Z,59.93
2022-08-29T20:03:31.150Z,61.69
2022-08-29T20:05:59.470Z,62.06
2022-08-29T20:08:27.406Z,62.40
2022-08-29T20:10:57.015Z,63.08
2022-08-29T20:13:24.672Z,62.38
2022-08-29T20:15:53.523Z,62.59
2022-08-29T20:18:22.487Z,62.96
2022-08-29T20:20:51.592Z,62.28
2022-08-29T20:23:19.296Z,62.35
2022-08-29T20:25:47.227Z,62.59
2022-08-29T20:28:15.628Z,63.17
2022-08-29T20:30:46.206Z,63.21
2022-08-29T20:33:18.111Z,63.68
2022-08-29T20:36:03.767Z,62.97
2022-08-29T20:38:33.244Z,64.23
2022-08-29T20:41:01.277Z,63.99
2022-08-29T20:43:29.491Z,64.00
2022-08-29T20:45:59.905Z,64.23
2022-08-29T20:48:31.350Z,64.56
2022-08-29T20:51:00.180Z,63.81
2022-08-29T20:53:32.350Z,64.65
2022-08-29T20:56:02.148Z,64.83
2022-08-29T20:58:30.383Z,64.64
2022-08-29T21:00:58.192Z,64.54
2022-08-29T21:03:43.945Z,64.76
2022-08-29T21:06:11.700Z,64.73
2022-08-29T21:08:40.921Z,65.43
2022-08-29T21:11:10.195Z,65.46
2022-08-29T21:13:43.602Z,65.38
2022-08-29T21:16:12.394Z,65.40
2022-08-29T21:18:40.418Z,64.41
2022-08-29T21:21:11.218Z,64.48
2022-08-29T21:23:39.037Z,64.33
2022-08-29T21:26:06.753Z,64.73
2022-08-29T21:28:37.921Z,64.28
2022-08-29T21:31:09.562Z,64.89
2022-08-29T21:33:37.707Z,64.69
2022-08-29T21:36:08.245Z,64.77
2022-08-29T21:38:35.889Z,66.33
2022-08-29T21:41:04.355Z,66.00
2022-08-29T21:43:32.364Z,66.16
2022-08-29T21:46:01.436Z,65.67
2022-08-29T21:48:29.023Z,66.65
2022-08-29T21:50:57.304Z,66.47
2022-08-29T21:53:24.899Z,66.52
2022-08-29T21:55:52.507Z,66.69
2022-08-29T21:58:20.461Z,66.52
2022-08-29T22:00:49.246Z,65.51
2022-08-29T22:03:18.514Z,65.77
2022-08-29T22:05:46.348Z,65.94
2022-08-29T22:08:16.452Z,65.64
2022-08-29T22:10:44.652Z,65.18
2022-08-29T22:13:12.260Z,64.83
2022-08-29T22:15:57.983Z,65.23
2022-08-29T22:18:27.291Z,66.27
2022-08-29T22:20:55.794Z,66.97
2022-08-29T22:23:24.336Z,66.90
2022-08-29T22:25:52.550Z,66.55
2022-08-29T22:28:20.364Z,66.41
2022-08-29T22:30:48.619Z,66.02
2022-08-29T22:33:16.980Z,65.52
2022-08-29T22:35:46.431Z,66.30
2022-08-29T22:38:14.216Z,66.70
2022-08-29T22:40:44.182Z,66.80
2022-08-29T22:43:12.184Z,67.91
2022-08-29T22:45:41.445Z,68.37
2022-08-29T22:48:09.100Z,67.77
2022-08-29T22:50:37.011Z,67.68
2022-08-29T22:53:06.195Z,67.65
2022-08-29T22:55:34.099Z,67.68
2022-08-29T22:58:01.693Z,67.46
2022-08-29T23:00:29.594Z,67.82
2022-08-29T23:02:57.260Z,67.60
2022-08-29T23:05:25.136Z,69.19
2022-08-29T23:07:53.031Z,69.39
2022-08-29T23:10:22.249Z,69.11
2022-08-29T23:12:50.577Z,68.12
2022-08-29T23:15:19.383Z,67.85
2022-08-29T23:17:47.562Z,67.87
2022-08-29T23:20:16.816Z,68.53
2022-08-29T23:22:46.952Z,68.50
2022-08-29T23:25:16.701Z,69.54
2022-08-29T23:27:45.670Z,69.00
2022-08-29T23:30:15.237Z,68.45
2022-08-29T23:32:43.018Z,67.75
2022-08-29T23:35:11.156Z,67.65
2022-08-29T23:37:38.780Z,68.70
2022-08-29T23:40:07.497Z,68.18
2022-08-29T23:42:35.125Z,66.66
2022-08-29T23:45:05.313Z,65.33
2022-08-29T23:47:32.923Z,65.63
2022-08-29T23:50:00.529Z,67.26
2022-08-29T23:52:28.158Z,66.56
2022-08-29T23:54:55.756Z,68.34
2022-08-29T23:57:23.357Z,67.78
